Time;durP1;ratioP1;P1;durP2;ratioP2;P2;SDS_P1;SDS_P2;PMS_P1;PMS_P2;Temp;Humidity;BMP_temperature;BMP_pressure;BME280_temperature;BME280_humidity;BME280_pressure;Samples;Min_cycle;Max_cycle;Signal;HPM_P1;HPM_P2
2021/06/18 00:02:22;;;;;;;8.60;7.57;;;;;;;;;;5116691;28;20994;-65
2021/06/18 00:04:49;;;;;;;8.53;7.80;;;;;;;;;;5116210;28;20951;-65
2021/06/18 00:07:16;;;;;;;10.00;8.60;;;;;;;;;;5116580;28;20443;-66
2021/06/18 00:09:45;;;;;;;8.80;8.00;;;;;;;;;;5116379;28;20443;-66
2021/06/18 00:12:12;;;;;;;9.70;8.80;;;;;;;;;;5115695;28;20450;-66
2021/06/18 00:14:40;;;;;;;10.73;9.70;;;;;;;;;;5116229;28;20896;-66
2021/06/18 00:17:07;;;;;;;14.87;8.67;;;;;;;;;;5120435;27;20532;-66
2021/06/18 00:19:35;;;;;;;13.30;8.80;;;;;;;;;;5136399;27;20446;-66
2021/06/18 00:22:02;;;;;;;10.20;9.20;;;;;;;;;;5136459;27;20449;-66
2021/06/18 00:24:29;;;;;;;10.30;8.43;;;;;;;;;;5136338;27;20446;-67
2021/06/18 00:26:58;;;;;;;8.20;7.50;;;;;;;;;;5136185;27;20479;-67
2021/06/18 00:29:25;;;;;;;8.87;8.00;;;;;;;;;;5136344;27;20460;-66
2021/06/18 00:31:52;;;;;;;10.20;8.20;;;;;;;;;;5136371;27;20450;-66
2021/06/18 00:34:19;;;;;;;11.00;8.90;;;;;;;;;;5136403;27;20431;-67
2021/06/18 00:36:46;;;;;;;12.27;9.80;;;;;;;;;;5135875;27;20442;-67
2021/06/18 00:39:14;;;;;;;11.77;9.63;;;;;;;;;;5136373;27;20906;-67
2021/06/18 00:41:41;;;;;;;10.27;9.27;;;;;;;;;;5135694;27;20454;-67
2021/06/18 00:44:09;;;;;;;12.57;8.40;;;;;;;;;;5136009;27;20441;-67
2021/06/18 00:46:37;;;;;;;13.07;8.13;;;;;;;;;;5131504;27;20458;-67
2021/06/18 00:49:04;;;;;;;9.70;8.90;;;;;;;;;;5115079;28;20445;-67
2021/06/18 00:51:31;;;;;;;12.30;11.00;;;;;;;;;;5115353;28;20537;-67
2021/06/18 00:53:58;;;;;;;10.33;8.47;;;;;;;;;;5115061;28;20518;-67
2021/06/18 00:56:26;;;;;;;9.53;8.70;;;;;;;;;;5115526;28;20485;-67
2021/06/18 00:58:53;;;;;;;12.23;9.33;;;;;;;;;;5114889;28;20594;-67
2021/06/18 01:01:22;;;;;;;19.93;10.70;;;;;;;;;;5114807;28;20450;-67
2021/06/18 01:03:49;;;;;;;11.40;9.50;;;;;;;;;;5115748;28;20431;-67
2021/06/18 01:06:24;;;;;;;12.57;9.90;;;;;;;;;;5115108;28;20452;-67
2021/06/18 01:08:54;;;;;;;13.93;9.73;;;;;;;;;;5115125;28;20443;-67
2021/06/18 01:11:25;;;;;;;10.97;9.97;;;;;;;;;;5115018;28;20442;-66
2021/06/18 01:13:54;;;;;;;14.80;10.70;;;;;;;;;;5115239;28;20431;-66
2021/06/18 01:16:28;;;;;;;14.03;10.20;;;;;;;;;;5114309;28;20531;-67
2021/06/18 01:18:58;;;;;;;13.67;9.63;;;;;;;;;;5115009;28;20788;-66
2021/06/18 01:21:28;;;;;;;12.17;9.97;;;;;;;;;;5115585;28;20432;-66
2021/06/18 01:24:08;;;;;;;13.10;11.70;;;;;;;;;;5114959;28;20435;-66
2021/06/18 01:27:09;;;;;;;13.70;12.40;;;;;;;;;;5114712;28;20427;-66
2021/06/18 01:29:39;;;;;;;13.50;11.70;;;;;;;;;;5114321;28;20435;-66
2021/06/18 01:32:07;;;;;;;13.63;12.33;;;;;;;;;;5114082;28;20952;-66
2021/06/18 01:34:35;;;;;;;15.80;13.00;;;;;;;;;;5114907;28;20449;-66
2021/06/18 01:37:05;;;;;;;12.37;11.00;;;;;;;;;;5114496;28;20439;-66
2021/06/18 01:39:33;;;;;;;13.17;11.90;;;;;;;;;;5114281;28;20446;-66
2021/06/18 01:42:01;;;;;;;14.60;13.10;;;;;;;;;;5114459;28;20785;-66
2021/06/18 01:44:29;;;;;;;14.53;12.97;;;;;;;;;;5114427;28;20450;-66
2021/06/18 01:46:57;;;;;;;14.27;12.87;;;;;;;;;;5120377;27;20462;-66
2021/06/18 01:49:25;;;;;;;15.60;13.90;;;;;;;;;;5134503;27;20437;-66
2021/06/18 01:51:53;;;;;;;14.80;13.30;;;;;;;;;;5134827;27;20810;-66
2021/06/18 01:54:26;;;;;;;14.40;12.07;;;;;;;;;;5135308;27;20441;-66
2021/06/18 01:56:54;;;;;;;15.77;12.90;;;;;;;;;;5134491;27;20554;-66
2021/06/18 01:59:22;;;;;;;13.33;12.17;;;;;;;;;;5134449;27;20534;-66
2021/06/18 02:01:50;;;;;;;16.07;14.37;;;;;;;;;;5134790;27;20872;-66
2021/06/18 02:04:19;;;;;;;19.07;12.73;;;;;;;;;;5135312;27;20444;-67
2021/06/18 02:06:47;;;;;;;17.00;13.43;;;;;;;;;;5134380;27;20445;-66
2021/06/18 02:09:16;;;;;;;13.73;12.30;;;;;;;;;;5134631;27;20799;-66
2021/06/18 02:11:43;;;;;;;16.33;14.73;;;;;;;;;;5134197;28;20927;-66
2021/06/18 02:14:12;;;;;;;14.73;13.20;;;;;;;;;;5134246;28;20438;-66
2021/06/18 02:16:41;;;;;;;14.17;12.73;;;;;;;;;;5133334;28;20475;-66
2021/06/18 02:19:08;;;;;;;14.90;13.50;;;;;;;;;;5114280;28;20776;-66
2021/06/18 02:21:37;;;;;;;15.10;13.50;;;;;;;;;;5113627;28;20949;-66
2021/06/18 02:24:05;;;;;;;13.37;11.97;;;;;;;;;;5113677;28;20437;-66
2021/06/18 02:26:32;;;;;;;12.97;11.77;;;;;;;;;;5115834;28;20439;-66
2021/06/18 02:29:00;;;;;;;16.20;13.70;;;;;;;;;;5134666;28;20418;-66
2021/06/18 02:31:29;;;;;;;16.77;13.33;;;;;;;;;;5134492;28;20770;-65
2021/06/18 02:33:57;;;;;;;14.20;12.70;;;;;;;;;;5134119;28;20448;-66
2021/06/18 02:36:24;;;;;;;15.30;13.33;;;;;;;;;;5134247;28;20481;-66
2021/06/18 02:38:53;;;;;;;14.37;12.63;;;;;;;;;;5134595;28;20865;-65
2021/06/18 02:41:20;;;;;;;14.70;13.30;;;;;;;;;;5134041;28;20439;-66
2021/06/18 02:43:47;;;;;;;15.93;14.53;;;;;;;;;;5134576;28;20447;-66
2021/06/18 02:46:18;;;;;;;18.93;14.00;;;;;;;;;;5134247;28;20452;-66
2021/06/18 02:48:47;;;;;;;16.50;13.90;;;;;;;;;;5134215;28;20460;-66
2021/06/18 02:51:19;;;;;;;13.50;12.17;;;;;;;;;;5134554;28;20444;-66
2021/06/18 02:53:48;;;;;;;17.90;14.30;;;;;;;;;;5133962;28;20428;-66
2021/06/18 02:56:22;;;;;;;14.73;13.20;;;;;;;;;;5135905;28;21091;-66
2021/06/18 02:58:54;;;;;;;15.33;13.73;;;;;;;;;;5135999;28;20422;-66
2021/06/18 03:01:21;;;;;;;16.43;13.00;;;;;;;;;;5133919;28;20433;-65
2021/06/18 03:03:50;;;;;;;15.80;12.93;;;;;;;;;;5134183;28;20468;-66
2021/06/18 03:06:17;;;;;;;15.50;13.33;;;;;;;;;;5132315;28;20463;-66
2021/06/18 03:08:46;;;;;;;13.90;12.50;;;;;;;;;;5124740;28;20439;-66
2021/06/18 03:11:14;;;;;;;15.37;13.57;;;;;;;;;;5121075;28;20434;-66
2021/06/18 03:13:45;;;;;;;15.73;13.67;;;;;;;;;;5133976;28;20441;-66
2021/06/18 03:16:13;;;;;;;14.20;12.70;;;;;;;;;;5121236;28;20975;-66
2021/06/18 03:18:41;;;;;;;17.07;12.33;;;;;;;;;;5117158;28;20805;-66
2021/06/18 03:21:09;;;;;;;18.77;14.57;;;;;;;;;;5116792;28;20443;-66
2021/06/18 03:23:37;;;;;;;21.87;13.40;;;;;;;;;;5121082;27;20455;-66
2021/06/18 03:26:05;;;;;;;13.43;12.20;;;;;;;;;;5138246;27;20433;-66
2021/06/18 03:28:33;;;;;;;15.47;12.80;;;;;;;;;;5137323;27;20840;-66
2021/06/18 03:31:03;;;;;;;15.83;11.83;;;;;;;;;;5135903;27;20790;-66
2021/06/18 03:33:31;;;;;;;13.13;12.00;;;;;;;;;;5117083;28;20432;-66
2021/06/18 03:35:59;;;;;;;14.80;13.17;;;;;;;;;;5116858;28;20521;-66
2021/06/18 03:38:26;;;;;;;14.83;13.40;;;;;;;;;;5116530;28;20966;-66
2021/06/18 03:40:54;;;;;;;14.23;13.03;;;;;;;;;;5116453;28;20942;-66
2021/06/18 03:43:21;;;;;;;13.70;12.30;;;;;;;;;;5127768;27;20462;-66
2021/06/18 03:45:50;;;;;;;16.10;12.37;;;;;;;;;;5119244;27;20430;-66
2021/06/18 03:48:19;;;;;;;16.37;13.63;;;;;;;;;;5136872;27;20496;-66
2021/06/18 03:50:46;;;;;;;16.10;14.40;;;;;;;;;;5128428;27;20435;-66
2021/06/18 03:53:16;;;;;;;14.83;13.30;;;;;;;;;;5135631;27;20449;-66
2021/06/18 03:55:46;;;;;;;14.77;13.17;;;;;;;;;;5136575;27;20470;-66
2021/06/18 03:58:14;;;;;;;16.27;14.57;;;;;;;;;;5136918;27;20445;-65
2021/06/18 04:00:43;;;;;;;16.43;14.97;;;;;;;;;;5137368;27;20919;-65
2021/06/18 04:03:11;;;;;;;17.27;13.37;;;;;;;;;;5137132;27;20449;-65
2021/06/18 04:05:41;;;;;;;17.83;13.77;;;;;;;;;;5136590;27;20456;-65
2021/06/18 04:08:08;;;;;;;18.10;14.10;;;;;;;;;;5137036;27;20536;-66
2021/06/18 04:10:36;;;;;;;15.93;14.37;;;;;;;;;;5137323;27;20442;-66
2021/06/18 04:13:04;;;;;;;16.90;15.10;;;;;;;;;;5129344;27;20544;-66
2021/06/18 04:15:31;;;;;;;14.87;13.50;;;;;;;;;;5120576;27;20951;-66
2021/06/18 04:18:00;;;;;;;14.93;13.60;;;;;;;;;;5134218;27;20440;-66
2021/06/18 04:20:27;;;;;;;17.00;15.20;;;;;;;;;;5133047;27;20435;-65
2021/06/18 04:22:56;;;;;;;15.97;14.13;;;;;;;;;;5127042;27;20958;-66
2021/06/18 04:25:24;;;;;;;15.90;14.40;;;;;;;;;;5136530;27;20437;-67
2021/06/18 04:27:51;;;;;;;19.50;14.67;;;;;;;;;;5135296;27;20548;-65
2021/06/18 04:30:19;;;;;;;14.57;13.17;;;;;;;;;;5133446;27;20918;-66
2021/06/18 04:32:46;;;;;;;15.13;13.73;;;;;;;;;;5122226;27;20486;-66
2021/06/18 04:35:13;;;;;;;14.17;12.87;;;;;;;;;;5134027;27;20440;-66
2021/06/18 04:37:42;;;;;;;14.03;12.60;;;;;;;;;;5135854;27;20478;-66
2021/06/18 04:40:12;;;;;;;16.70;14.80;;;;;;;;;;5136182;27;20817;-66
2021/06/18 04:42:39;;;;;;;14.57;13.20;;;;;;;;;;5135879;27;20461;-66
2021/06/18 04:45:07;;;;;;;14.80;13.30;;;;;;;;;;5136141;27;20545;-66
2021/06/18 04:47:34;;;;;;;16.20;14.13;;;;;;;;;;5135857;27;20458;-66
2021/06/18 04:50:01;;;;;;;15.40;13.80;;;;;;;;;;5136190;27;20438;-66
2021/06/18 04:52:29;;;;;;;14.73;13.33;;;;;;;;;;5135894;27;20531;-66
2021/06/18 04:54:56;;;;;;;13.97;12.57;;;;;;;;;;5135910;27;20436;-66
2021/06/18 04:57:25;;;;;;;14.93;13.37;;;;;;;;;;5135710;27;21090;-66
2021/06/18 04:59:52;;;;;;;14.73;12.53;;;;;;;;;;5136438;27;20450;-66
2021/06/18 05:02:19;;;;;;;13.80;12.50;;;;;;;;;;5115248;28;20482;-66
2021/06/18 05:04:47;;;;;;;13.73;12.33;;;;;;;;;;5114855;28;20437;-66
2021/06/18 05:07:14;;;;;;;11.70;10.50;;;;;;;;;;5115430;28;20534;-66
2021/06/18 05:09:41;;;;;;;15.67;11.60;;;;;;;;;;5114717;28;20543;-66
2021/06/18 05:12:09;;;;;;;13.97;11.87;;;;;;;;;;5121592;27;20449;-66
2021/06/18 05:14:37;;;;;;;17.03;11.17;;;;;;;;;;5135476;27;20773;-66
2021/06/18 05:17:04;;;;;;;12.50;11.20;;;;;;;;;;5135285;27;20473;-66
2021/06/18 05:19:32;;;;;;;15.80;12.37;;;;;;;;;;5130083;27;20525;-67
2021/06/18 05:21:59;;;;;;;12.47;11.10;;;;;;;;;;5127806;27;20440;-67
2021/06/18 05:24:26;;;;;;;11.07;9.97;;;;;;;;;;5131102;27;20789;-66
2021/06/18 05:26:53;;;;;;;12.73;10.67;;;;;;;;;;5116820;27;20467;-66
2021/06/18 05:29:21;;;;;;;12.37;11.20;;;;;;;;;;5114649;28;20435;-66
2021/06/18 05:31:49;;;;;;;13.53;11.47;;;;;;;;;;5131599;27;20454;-66
2021/06/18 05:34:16;;;;;;;12.27;10.40;;;;;;;;;;5133413;27;20592;-67
2021/06/18 05:36:45;;;;;;;11.47;10.27;;;;;;;;;;5133528;27;20570;-67
2021/06/18 05:39:12;;;;;;;10.80;9.60;;;;;;;;;;5133576;27;20794;-67
2021/06/18 05:41:39;;;;;;;15.60;9.33;;;;;;;;;;5135111;27;20438;-67
2021/06/18 05:44:07;;;;;;;10.13;9.23;;;;;;;;;;5134197;27;20448;-67
2021/06/18 05:46:34;;;;;;;11.13;9.90;;;;;;;;;;5134620;27;20521;-66
2021/06/18 05:49:03;;;;;;;11.20;10.17;;;;;;;;;;5134571;27;20443;-67
2021/06/18 05:51:30;;;;;;;12.27;10.50;;;;;;;;;;5134553;27;20937;-67
2021/06/18 05:53:57;;;;;;;12.03;10.53;;;;;;;;;;5134540;27;20449;-67
2021/06/18 05:56:25;;;;;;;13.47;11.93;;;;;;;;;;5134965;27;20446;-67
2021/06/18 05:58:52;;;;;;;12.53;9.87;;;;;;;;;;5134731;27;20545;-67
2021/06/18 06:01:19;;;;;;;12.47;10.57;;;;;;;;;;5134502;27;20478;-67
2021/06/18 06:03:46;;;;;;;11.93;9.70;;;;;;;;;;5134669;27;20437;-67
2021/06/18 06:06:15;;;;;;;13.27;8.83;;;;;;;;;;5134117;27;20477;-67
2021/06/18 06:08:42;;;;;;;12.43;9.77;;;;;;;;;;5134590;27;20474;-67
2021/06/18 06:11:10;;;;;;;46.23;35.97;;;;;;;;;;5134571;27;20527;-67
2021/06/18 06:13:38;;;;;;;12.00;9.50;;;;;;;;;;5134585;27;20500;-67
2021/06/18 06:16:05;;;;;;;12.83;10.37;;;;;;;;;;5134444;28;20815;-67
2021/06/18 06:18:33;;;;;;;9.80;8.80;;;;;;;;;;5134581;28;20500;-67
2021/06/18 06:21:00;;;;;;;14.87;9.70;;;;;;;;;;5134584;28;20445;-66
2021/06/18 06:23:28;;;;;;;16.30;10.63;;;;;;;;;;5134232;28;20957;-66
2021/06/18 06:25:56;;;;;;;15.50;9.87;;;;;;;;;;5134203;28;20534;-66
2021/06/18 06:28:23;;;;;;;20.83;10.27;;;;;;;;;;5134027;28;20484;-67
2021/06/18 06:30:50;;;;;;;37.73;10.80;;;;;;;;;;5134525;28;20443;-67
2021/06/18 06:33:17;;;;;;;13.40;9.43;;;;;;;;;;5119456;28;20459;-67
2021/06/18 06:35:45;;;;;;;15.23;8.30;;;;;;;;;;5114190;28;20436;-67
2021/06/18 06:38:12;;;;;;;13.70;9.33;;;;;;;;;;5113646;28;20493;-67
2021/06/18 06:40:40;;;;;;;9.53;8.53;;;;;;;;;;5113493;28;20441;-67
2021/06/18 06:43:08;;;;;;;12.83;9.13;;;;;;;;;;5124931;28;20456;-67
2021/06/18 06:45:35;;;;;;;10.77;9.67;;;;;;;;;;5116485;28;20444;-67
2021/06/18 06:48:02;;;;;;;11.30;7.90;;;;;;;;;;5134257;28;20439;-67
2021/06/18 06:50:29;;;;;;;9.60;8.67;;;;;;;;;;5125650;28;20959;-66
2021/06/18 06:52:56;;;;;;;11.67;7.93;;;;;;;;;;5118027;28;20441;-67
2021/06/18 06:55:24;;;;;;;10.40;8.87;;;;;;;;;;5117337;28;20449;-67
2021/06/18 06:57:53;;;;;;;10.50;9.50;;;;;;;;;;5117518;28;20504;-67
2021/06/18 07:00:21;;;;;;;14.23;8.73;;;;;;;;;;5137238;27;20434;-67
2021/06/18 07:02:48;;;;;;;10.47;9.40;;;;;;;;;;5130751;27;20443;-67
2021/06/18 07:05:15;;;;;;;11.33;9.10;;;;;;;;;;5124114;27;20488;-67
2021/06/18 07:07:42;;;;;;;10.37;9.37;;;;;;;;;;5133582;27;20969;-67
2021/06/18 07:10:10;;;;;;;10.37;8.50;;;;;;;;;;5136660;27;20787;-67
2021/06/18 07:12:37;;;;;;;12.90;8.93;;;;;;;;;;5117983;28;20452;-67
2021/06/18 07:15:07;;;;;;;10.53;8.40;;;;;;;;;;5117392;28;20927;-67
2021/06/18 07:17:35;;;;;;;9.90;8.90;;;;;;;;;;5117107;28;20542;-67
2021/06/18 07:20:02;;;;;;;10.33;9.13;;;;;;;;;;5129734;27;20405;-66
2021/06/18 07:22:30;;;;;;;9.13;8.30;;;;;;;;;;5137232;27;20465;-67
2021/06/18 07:24:58;;;;;;;10.50;8.27;;;;;;;;;;5137405;27;20841;-67
2021/06/18 07:27:25;;;;;;;12.73;8.80;;;;;;;;;;5125231;27;20468;-67
2021/06/18 07:29:54;;;;;;;9.67;8.67;;;;;;;;;;5117040;28;20613;-67
2021/06/18 07:32:23;;;;;;;9.67;8.47;;;;;;;;;;5119301;27;20814;-67
2021/06/18 07:34:50;;;;;;;9.63;8.23;;;;;;;;;;5125468;27;20545;-67
2021/06/18 07:37:17;;;;;;;9.40;8.57;;;;;;;;;;5130968;27;20476;-67
2021/06/18 07:39:44;;;;;;;10.10;9.17;;;;;;;;;;5137915;27;20425;-66
2021/06/18 07:42:12;;;;;;;12.33;9.13;;;;;;;;;;5121166;27;20441;-67
2021/06/18 07:44:39;;;;;;;11.00;9.53;;;;;;;;;;5137312;27;20499;-67
2021/06/18 07:47:07;;;;;;;9.73;8.93;;;;;;;;;;5136901;27;20453;-67
2021/06/18 07:49:35;;;;;;;10.90;9.23;;;;;;;;;;5124750;27;20532;-66
2021/06/18 07:52:03;;;;;;;11.13;9.77;;;;;;;;;;5131356;27;20444;-66
2021/06/18 07:54:30;;;;;;;11.53;9.70;;;;;;;;;;5116006;28;20438;-68
2021/06/18 07:56:57;;;;;;;10.43;9.33;;;;;;;;;;5136716;27;20490;-66
2021/06/18 07:59:25;;;;;;;12.50;10.33;;;;;;;;;;5136753;27;20469;-67
2021/06/18 08:01:52;;;;;;;11.53;9.80;;;;;;;;;;5136869;27;20475;-67
2021/06/18 08:04:19;;;;;;;13.53;9.17;;;;;;;;;;5136592;27;20520;-67
2021/06/18 08:06:48;;;;;;;10.60;9.63;;;;;;;;;;5137242;27;20866;-67
2021/06/18 08:09:15;;;;;;;10.57;9.00;;;;;;;;;;5137229;27;20446;-67
2021/06/18 08:11:42;;;;;;;12.10;9.67;;;;;;;;;;5137229;27;20527;-67
2021/06/18 08:14:09;;;;;;;13.17;10.53;;;;;;;;;;5136422;27;20957;-67
2021/06/18 08:16:37;;;;;;;11.00;9.93;;;;;;;;;;5137690;27;20441;-67
2021/06/18 08:19:04;;;;;;;10.20;9.40;;;;;;;;;;5136953;27;20787;-67
2021/06/18 08:21:31;;;;;;;12.87;9.13;;;;;;;;;;5137397;27;20803;-66
2021/06/18 08:24:00;;;;;;;10.40;9.60;;;;;;;;;;5136413;27;20935;-67
2021/06/18 08:26:27;;;;;;;13.60;12.20;;;;;;;;;;5136347;27;20456;-68
2021/06/18 08:28:54;;;;;;;13.73;12.30;;;;;;;;;;5136070;27;20913;-67
2021/06/18 08:31:22;;;;;;;11.90;10.63;;;;;;;;;;5136337;27;20409;-67
2021/06/18 08:33:50;;;;;;;16.90;12.57;;;;;;;;;;5115147;28;20438;-67
2021/06/18 08:36:17;;;;;;;14.30;12.80;;;;;;;;;;5115959;28;20806;-67
2021/06/18 08:38:44;;;;;;;15.50;13.90;;;;;;;;;;5115185;28;20487;-67
2021/06/18 08:41:13;;;;;;;14.83;13.50;;;;;;;;;;5115583;28;20526;-67
2021/06/18 08:43:41;;;;;;;18.00;15.43;;;;;;;;;;5135357;27;20537;-67
2021/06/18 08:46:08;;;;;;;18.00;13.47;;;;;;;;;;5136093;27;20442;-67
2021/06/18 08:48:35;;;;;;;13.70;12.43;;;;;;;;;;5135695;27;20438;-67
2021/06/18 08:51:04;;;;;;;14.87;13.37;;;;;;;;;;5135629;27;20439;-66
2021/06/18 08:53:34;;;;;;;13.73;12.33;;;;;;;;;;5135636;27;20461;-66
2021/06/18 08:56:01;;;;;;;15.57;12.40;;;;;;;;;;5136404;27;20521;-67
2021/06/18 08:58:30;;;;;;;16.70;14.40;;;;;;;;;;5136028;27;20470;-67
2021/06/18 09:00:57;;;;;;;15.17;13.83;;;;;;;;;;5135883;27;20902;-67
2021/06/18 09:03:43;;;;;;;14.80;12.90;;;;;;;;;;5125995;27;20993;-67
2021/06/18 09:06:26;;;;;;;12.87;11.57;;;;;;;;;;5123060;27;20426;-66
2021/06/18 09:09:24;;;;;;;14.33;12.83;;;;;;;;;;5135854;27;20447;-67
2021/06/18 09:11:52;;;;;;;16.90;13.30;;;;;;;;;;5044626;28;20519;-67
2021/06/18 09:14:22;;;;;;;15.63;12.40;;;;;;;;;;5095610;28;20447;-67
2021/06/18 09:17:06;;;;;;;15.23;13.50;;;;;;;;;;5120545;27;20846;-67
2021/06/18 09:19:34;;;;;;;15.43;14.00;;;;;;;;;;5135613;27;20428;-67
2021/06/18 09:22:02;;;;;;;18.60;13.93;;;;;;;;;;5134975;27;20413;-66
2021/06/18 09:24:29;;;;;;;29.70;15.80;;;;;;;;;;5135161;27;20939;-67
2021/06/18 09:26:57;;;;;;;16.20;12.87;;;;;;;;;;5134543;27;20552;-66
2021/06/18 09:29:26;;;;;;;18.57;12.40;;;;;;;;;;5135519;27;20458;-66
2021/06/18 09:31:54;;;;;;;18.50;15.70;;;;;;;;;;5135253;27;20447;-67
2021/06/18 09:34:32;;;;;;;18.30;15.13;;;;;;;;;;5134623;27;20828;-67
2021/06/18 09:37:15;;;;;;;14.90;13.27;;;;;;;;;;5134830;27;20805;-66
2021/06/18 09:39:55;;;;;;;14.73;13.10;;;;;;;;;;5135559;27;20458;-66
2021/06/18 09:42:23;;;;;;;16.00;14.20;;;;;;;;;;5134471;27;20458;-67
2021/06/18 09:45:01;;;;;;;16.03;14.37;;;;;;;;;;5135621;27;20836;-68
2021/06/18 09:47:29;;;;;;;16.37;14.70;;;;;;;;;;5135150;27;20445;-67
2021/06/18 09:49:56;;;;;;;14.67;13.43;;;;;;;;;;5134896;27;20405;-67
2021/06/18 09:52:25;;;;;;;15.40;14.00;;;;;;;;;;5134788;27;20529;-67
2021/06/18 09:54:53;;;;;;;13.10;12.00;;;;;;;;;;5134599;27;20471;-67
2021/06/18 09:57:23;;;;;;;13.10;11.80;;;;;;;;;;5134058;27;20433;-67
2021/06/18 09:59:55;;;;;;;13.97;12.67;;;;;;;;;;5134473;27;20448;-67
2021/06/18 10:02:36;;;;;;;15.30;11.70;;;;;;;;;;5134815;27;20407;-67
2021/06/18 10:05:04;;;;;;;12.70;11.43;;;;;;;;;;5135266;27;20413;-67
2021/06/18 10:07:33;;;;;;;10.77;9.67;;;;;;;;;;5132189;27;20439;-67
2021/06/18 10:10:01;;;;;;;15.20;10.03;;;;;;;;;;5123957;27;20425;-66
2021/06/18 10:12:30;;;;;;;10.93;9.83;;;;;;;;;;5122676;28;20783;-67
2021/06/18 10:14:58;;;;;;;14.50;8.77;;;;;;;;;;5135086;28;20415;-67
2021/06/18 10:17:27;;;;;;;10.27;8.60;;;;;;;;;;5119705;28;20410;-67
2021/06/18 10:19:54;;;;;;;18.43;10.40;;;;;;;;;;5131795;28;20430;-66
2021/06/18 10:22:22;;;;;;;14.17;10.60;;;;;;;;;;5134970;28;20500;-66
2021/06/18 10:24:51;;;;;;;16.30;11.43;;;;;;;;;;5134492;27;20443;-67
2021/06/18 10:27:21;;;;;;;12.73;10.93;;;;;;;;;;5125394;27;20966;-67
2021/06/18 10:29:48;;;;;;;12.97;10.93;;;;;;;;;;5117796;28;20424;-67
2021/06/18 10:32:34;;;;;;;15.37;11.07;;;;;;;;;;5128584;27;20522;-67
2021/06/18 10:35:01;;;;;;;11.50;10.40;;;;;;;;;;5139520;27;20529;-67
2021/06/18 10:37:30;;;;;;;10.50;9.00;;;;;;;;;;5138707;27;20440;-66
2021/06/18 10:39:58;;;;;;;13.20;8.97;;;;;;;;;;5138458;27;20442;-66
2021/06/18 10:42:26;;;;;;;10.50;9.37;;;;;;;;;;5138948;27;20446;-67
2021/06/18 10:44:54;;;;;;;15.23;11.30;;;;;;;;;;5126711;27;20479;-67
2021/06/18 10:47:43;;;;;;;14.33;11.17;;;;;;;;;;5117779;28;20524;-67
2021/06/18 10:50:14;;;;;;;28.23;10.63;;;;;;;;;;5118229;28;20794;-67
2021/06/18 10:52:44;;;;;;;18.83;10.67;;;;;;;;;;5118202;28;20412;-67
2021/06/18 10:55:14;;;;;;;18.00;9.93;;;;;;;;;;5117186;28;20415;-67
2021/06/18 10:57:58;;;;;;;9.03;8.10;;;;;;;;;;5117219;27;20463;-66
2021/06/18 11:00:27;;;;;;;13.30;9.17;;;;;;;;;;5116323;28;20470;-67
2021/06/18 11:02:54;;;;;;;12.20;7.20;;;;;;;;;;5132937;27;20448;-67
2021/06/18 11:05:38;;;;;;;13.33;7.77;;;;;;;;;;5138081;27;20803;-67
2021/06/18 11:08:18;;;;;;;14.23;8.07;;;;;;;;;;5138519;27;20449;-67
2021/06/18 11:10:46;;;;;;;10.23;7.30;;;;;;;;;;5138121;27;20481;-67
2021/06/18 11:13:17;;;;;;;8.97;6.37;;;;;;;;;;5137647;27;20490;-67
2021/06/18 11:15:45;;;;;;;7.47;5.70;;;;;;;;;;5138232;27;20913;-66
2021/06/18 11:18:18;;;;;;;11.63;6.80;;;;;;;;;;5137804;27;20908;-66
2021/06/18 11:20:51;;;;;;;8.40;7.60;;;;;;;;;;5137483;27;20481;-67
2021/06/18 11:23:21;;;;;;;9.80;7.57;;;;;;;;;;5137948;27;20478;-67
2021/06/18 11:25:59;;;;;;;14.80;10.13;;;;;;;;;;5137560;27;20537;-66
2021/06/18 11:28:34;;;;;;;14.80;7.33;;;;;;;;;;5138170;27;20504;-67
2021/06/18 11:31:08;;;;;;;11.70;6.67;;;;;;;;;;5137443;27;20440;-67
2021/06/18 11:33:46;;;;;;;8.43;6.33;;;;;;;;;;5138002;27;20429;-67
2021/06/18 11:36:32;;;;;;;11.37;7.10;;;;;;;;;;5136114;27;20531;-67
2021/06/18 11:39:02;;;;;;;7.73;6.50;;;;;;;;;;5116769;28;20473;-67
2021/06/18 11:41:30;;;;;;;7.97;6.80;;;;;;;;;;5116284;28;20456;-67
2021/06/18 11:43:59;;;;;;;7.60;6.43;;;;;;;;;;5116505;28;20799;-67
2021/06/18 11:46:28;;;;;;;9.33;5.90;;;;;;;;;;5121976;27;20459;-67
2021/06/18 11:48:57;;;;;;;9.87;7.47;;;;;;;;;;5120962;27;21018;-67
2021/06/18 11:51:25;;;;;;;8.37;7.40;;;;;;;;;;5135076;27;20445;-67
2021/06/18 11:53:52;;;;;;;7.03;6.20;;;;;;;;;;5136972;27;20441;-66
2021/06/18 11:56:21;;;;;;;8.67;6.53;;;;;;;;;;5136895;27;20441;-67
2021/06/18 11:58:49;;;;;;;8.03;6.60;;;;;;;;;;5136468;27;20480;-67
2021/06/18 12:01:17;;;;;;;10.53;7.23;;;;;;;;;;5136982;27;20502;-67
2021/06/18 12:03:45;;;;;;;9.13;7.40;;;;;;;;;;5136912;27;20438;-67
2021/06/18 12:06:16;;;;;;;9.93;8.23;;;;;;;;;;5137378;27;20483;-67
2021/06/18 12:08:58;;;;;;;15.63;9.10;;;;;;;;;;5137149;27;20528;-66
2021/06/18 12:11:26;;;;;;;14.27;8.97;;;;;;;;;;5136984;27;20466;-68
2021/06/18 12:13:54;;;;;;;20.57;9.73;;;;;;;;;;5136619;27;20419;-68
2021/06/18 12:16:22;;;;;;;11.33;7.23;;;;;;;;;;5134711;27;20449;-68
2021/06/18 12:18:49;;;;;;;11.50;7.83;;;;;;;;;;5126587;27;20503;-67
2021/06/18 12:21:24;;;;;;;12.97;8.60;;;;;;;;;;5123603;27;20426;-67
2021/06/18 12:24:01;;;;;;;9.23;7.97;;;;;;;;;;5136287;27;20428;-68
2021/06/18 12:26:30;;;;;;;10.53;9.07;;;;;;;;;;5120407;27;20537;-67
2021/06/18 12:28:58;;;;;;;9.27;8.40;;;;;;;;;;5116065;28;20447;-67
2021/06/18 12:31:25;;;;;;;16.67;8.83;;;;;;;;;;5115771;27;20427;-67
2021/06/18 12:33:53;;;;;;;11.00;8.77;;;;;;;;;;5136025;27;20531;-67
2021/06/18 12:36:21;;;;;;;13.80;12.40;;;;;;;;;;5136353;27;20521;-67
2021/06/18 12:38:49;;;;;;;11.07;9.80;;;;;;;;;;5136008;27;20491;-67
2021/06/18 12:41:33;;;;;;;11.03;9.20;;;;;;;;;;5135342;27;22011;-67
2021/06/18 12:44:02;;;;;;;10.20;8.67;;;;;;;;;;5136517;27;20521;-67
2021/06/18 12:46:30;;;;;;;13.23;8.33;;;;;;;;;;5135996;27;20524;-67
2021/06/18 12:49:05;;;;;;;9.27;8.13;;;;;;;;;;5134777;27;20451;-67
2021/06/18 12:51:33;;;;;;;11.57;8.10;;;;;;;;;;5135450;27;20420;-68
2021/06/18 12:54:03;;;;;;;9.03;7.80;;;;;;;;;;5135955;27;20435;-69
2021/06/18 12:56:31;;;;;;;11.47;8.30;;;;;;;;;;5136138;27;20476;-69
2021/06/18 12:59:10;;;;;;;17.43;8.53;;;;;;;;;;5135512;27;20480;-68
2021/06/18 13:01:39;;;;;;;9.40;7.93;;;;;;;;;;5135560;27;20506;-69
2021/06/18 13:04:08;;;;;;;10.83;8.07;;;;;;;;;;5136187;27;20442;-68
2021/06/18 13:06:48;;;;;;;7.87;6.93;;;;;;;;;;5136000;27;20449;-68
2021/06/18 13:09:15;;;;;;;8.80;6.10;;;;;;;;;;5136170;27;20503;-69
2021/06/18 13:11:47;;;;;;;14.33;7.27;;;;;;;;;;5135043;27;20481;-68
2021/06/18 13:14:15;;;;;;;6.00;5.40;;;;;;;;;;5135510;27;20485;-68
2021/06/18 13:16:44;;;;;;;11.37;5.43;;;;;;;;;;5123760;27;20454;-68
2021/06/18 13:19:11;;;;;;;8.33;5.40;;;;;;;;;;5114383;28;20515;-69
2021/06/18 13:21:44;;;;;;;7.87;5.20;;;;;;;;;;5114502;28;20442;-68
2021/06/18 13:24:11;;;;;;;5.13;4.63;;;;;;;;;;5114839;28;20476;-68
2021/06/18 13:26:39;;;;;;;6.77;5.27;;;;;;;;;;5116097;27;20488;-68
2021/06/18 13:29:13;;;;;;;13.03;5.60;;;;;;;;;;5123689;27;20431;-68
2021/06/18 13:31:42;;;;;;;10.50;5.10;;;;;;;;;;5126379;27;20474;-68
2021/06/18 13:34:11;;;;;;;10.20;5.03;;;;;;;;;;5135205;27;20444;-67
2021/06/18 13:36:40;;;;;;;5.90;4.90;;;;;;;;;;5135114;27;20443;-68
2021/06/18 13:39:11;;;;;;;33.97;7.50;;;;;;;;;;5135298;27;20575;-68
2021/06/18 13:41:39;;;;;;;7.60;4.77;;;;;;;;;;5127853;27;20556;-68
2021/06/18 13:44:07;;;;;;;10.30;5.00;;;;;;;;;;5117550;27;20472;-68
2021/06/18 13:46:35;;;;;;;7.73;5.70;;;;;;;;;;5128617;27;20527;-69
2021/06/18 13:49:02;;;;;;;7.87;4.33;;;;;;;;;;5126646;27;21013;-69
2021/06/18 13:51:31;;;;;;;5.90;4.20;;;;;;;;;;5119343;27;20979;-69
2021/06/18 13:53:59;;;;;;;10.23;5.10;;;;;;;;;;5122865;27;20475;-69
2021/06/18 13:56:27;;;;;;;6.17;4.63;;;;;;;;;;5127601;27;20437;-69
2021/06/18 13:58:54;;;;;;;8.87;4.07;;;;;;;;;;5113833;28;20580;-69
2021/06/18 14:01:21;;;;;;;10.60;4.73;;;;;;;;;;5126325;27;20519;-69
2021/06/18 14:03:49;;;;;;;9.33;4.57;;;;;;;;;;5134293;27;20474;-69
2021/06/18 14:06:16;;;;;;;7.20;4.70;;;;;;;;;;5134661;27;20444;-70
2021/06/18 14:08:45;;;;;;;6.87;4.73;;;;;;;;;;5113622;28;20812;-69
2021/06/18 14:11:15;;;;;;;9.87;5.20;;;;;;;;;;5114301;28;20466;-68
2021/06/18 14:13:42;;;;;;;8.07;5.00;;;;;;;;;;5114065;28;20464;-69
2021/06/18 14:16:09;;;;;;;5.60;4.97;;;;;;;;;;5114249;28;20524;-69
2021/06/18 14:18:37;;;;;;;7.20;4.70;;;;;;;;;;5124662;28;20498;-69
2021/06/18 14:21:04;;;;;;;7.07;5.30;;;;;;;;;;5117642;28;20434;-68
2021/06/18 14:23:32;;;;;;;9.40;5.40;;;;;;;;;;5134687;28;20444;-69
2021/06/18 14:26:01;;;;;;;7.00;4.70;;;;;;;;;;5125337;28;20466;-68
2021/06/18 14:28:28;;;;;;;7.70;5.10;;;;;;;;;;5113230;28;20478;-69
2021/06/18 14:30:56;;;;;;;8.40;5.10;;;;;;;;;;5113667;28;20457;-69
2021/06/18 14:33:23;;;;;;;9.50;5.20;;;;;;;;;;5114187;28;20533;-69
2021/06/18 14:35:50;;;;;;;14.87;5.43;;;;;;;;;;5113540;28;20450;-69
2021/06/18 14:38:18;;;;;;;11.53;5.63;;;;;;;;;;5113551;28;20445;-70